createdAt,value
2018-03-27T00:00:22.258Z,12.40
2018-03-27T00:02:49.719Z,9.73
2018-03-27T00:05:17.287Z,8.73
2018-03-27T00:07:44.761Z,8.40
2018-03-27T00:10:12.235Z,12.17
2018-03-27T00:12:40.054Z,14.97
2018-03-27T00:15:07.607Z,14.60
2018-03-27T00:17:35.075Z,9.33
2018-03-27T00:20:02.537Z,9.67
2018-03-27T00:22:30.044Z,10.80
2018-03-27T00:24:57.501Z,9.43
2018-03-27T00:27:36.890Z,10.00
2018-03-27T00:30:16.213Z,6.63
2018-03-27T00:32:55.494Z,31.43
2018-03-27T00:35:34.886Z,13.07
2018-03-27T00:38:14.178Z,13.80
2018-03-27T00:40:42.861Z,8.40
2018-03-27T00:43:13.122Z,10.53
2018-03-27T00:45:40.684Z,8.70
2018-03-27T00:48:08.189Z,17.23
2018-03-27T00:50:35.706Z,9.10
2018-03-27T00:53:03.320Z,9.10
2018-03-27T00:55:30.815Z,6.87
2018-03-27T00:57:58.269Z,7.80
2018-03-27T01:00:25.784Z,7.93
2018-03-27T01:02:53.250Z,15.97
2018-03-27T01:05:20.748Z,12.77
2018-03-27T01:07:48.204Z,11.17
2018-03-27T01:10:15.666Z,7.80
2018-03-27T01:12:43.218Z,11.40
2018-03-27T01:15:10.674Z,8.67
2018-03-27T01:17:38.136Z,18.60
2018-03-27T01:20:05.653Z,13.50
2018-03-27T01:22:33.122Z,11.73
2018-03-27T01:25:00.661Z,10.67
2018-03-27T01:27:28.163Z,8.77
2018-03-27T01:29:55.718Z,6.40
2018-03-27T01:32:23.173Z,8.50
2018-03-27T01:34:50.747Z,9.97
2018-03-27T01:37:18.265Z,8.33
2018-03-27T01:39:45.763Z,8.33
2018-03-27T01:42:13.222Z,9.77
2018-03-27T01:44:40.774Z,9.07
2018-03-27T01:47:08.330Z,9.10
2018-03-27T01:49:35.792Z,8.70
2018-03-27T01:52:03.282Z,7.13
2018-03-27T01:54:30.741Z,7.80
2018-03-27T01:56:58.195Z,7.93
2018-03-27T01:59:25.687Z,8.57
2018-03-27T02:01:53.139Z,8.87
2018-03-27T02:04:20.634Z,8.70
2018-03-27T02:06:48.287Z,8.80
2018-03-27T02:09:15.733Z,8.97
2018-03-27T02:11:48.946Z,8.70
2018-03-27T02:14:22.003Z,9.43
2018-03-27T02:16:55.094Z,7.90
2018-03-27T02:19:28.266Z,6.53
2018-03-27T02:21:55.186Z,9.43
2018-03-27T02:24:26.593Z,9.97
2018-03-27T02:26:54.069Z,9.03
2018-03-27T02:29:21.554Z,8.00
2018-03-27T02:31:49.016Z,9.43
2018-03-27T02:34:16.595Z,10.17
2018-03-27T02:36:44.070Z,9.80
2018-03-27T02:39:11.612Z,9.20
2018-03-27T02:41:39.095Z,7.50
2018-03-27T02:44:06.550Z,9.37
2018-03-27T02:46:34.044Z,7.93
2018-03-27T02:49:01.595Z,9.53
2018-03-27T02:51:29.050Z,9.90
2018-03-27T02:53:56.549Z,9.07
2018-03-27T02:56:24.083Z,10.50
2018-03-27T02:58:51.535Z,9.50
2018-03-27T03:01:19.006Z,8.50
2018-03-27T03:03:46.471Z,10.97
2018-03-27T03:06:13.993Z,9.53
2018-03-27T03:08:41.478Z,10.17
2018-03-27T03:11:08.966Z,9.70
2018-03-27T03:13:36.465Z,10.20
2018-03-27T03:16:03.945Z,9.93
2018-03-27T03:18:31.415Z,8.17
2018-03-27T03:20:58.986Z,8.57
2018-03-27T03:23:26.445Z,8.93
2018-03-27T03:25:53.903Z,10.23
2018-03-27T03:28:21.446Z,9.70
2018-03-27T03:30:48.902Z,9.40
2018-03-27T03:33:16.368Z,9.77
2018-03-27T03:35:43.870Z,8.60
2018-03-27T03:38:11.343Z,9.50
2018-03-27T03:40:38.795Z,14.10
2018-03-27T03:43:06.283Z,15.57
2018-03-27T03:45:33.762Z,11.33
2018-03-27T03:48:01.220Z,10.53
2018-03-27T03:50:28.694Z,9.50
2018-03-27T03:52:56.172Z,8.83
2018-03-27T03:55:23.646Z,8.10
2018-03-27T03:57:51.198Z,9.17
2018-03-27T04:00:18.762Z,9.63
2018-03-27T04:02:46.254Z,8.60
2018-03-27T04:05:13.724Z,8.90
2018-03-27T04:07:41.229Z,9.27
2018-03-27T04:10:08.690Z,8.90
2018-03-27T04:12:36.152Z,9.33
2018-03-27T04:15:03.714Z,8.20
2018-03-27T04:17:31.163Z,9.30
2018-03-27T04:19:58.626Z,8.40
2018-03-27T04:22:26.106Z,9.10
2018-03-27T04:24:53.562Z,8.47
2018-03-27T04:27:21.022Z,8.80
2018-03-27T04:29:48.502Z,10.47
2018-03-27T04:32:15.962Z,9.37
2018-03-27T04:34:43.418Z,9.90
2018-03-27T04:37:10.909Z,12.00
2018-03-27T04:39:38.377Z,13.00
2018-03-27T04:42:05.842Z,17.70
2018-03-27T04:44:33.391Z,10.20
2018-03-27T04:47:00.901Z,10.60
2018-03-27T04:49:28.521Z,12.50
2018-03-27T04:51:56.009Z,12.17
2018-03-27T04:54:23.470Z,12.27
2018-03-27T04:56:50.927Z,10.97
2018-03-27T04:59:18.425Z,11.67
2018-03-27T05:01:45.877Z,13.40
2018-03-27T05:04:13.365Z,11.27
2018-03-27T05:06:40.840Z,10.83
2018-03-27T05:09:08.395Z,12.73
2018-03-27T05:11:35.883Z,10.93
2018-03-27T05:14:03.444Z,12.97
2018-03-27T05:16:30.957Z,13.07
2018-03-27T05:18:58.506Z,14.20
2018-03-27T05:21:25.978Z,12.97
2018-03-27T05:23:53.534Z,14.00
2018-03-27T05:26:21.009Z,16.40
2018-03-27T05:28:48.464Z,15.60
2018-03-27T05:31:16.006Z,15.77
2018-03-27T05:33:43.504Z,17.57
2018-03-27T05:36:10.984Z,15.70
2018-03-27T05:38:38.479Z,16.93
2018-03-27T05:41:05.978Z,15.57
2018-03-27T05:43:33.513Z,16.87
2018-03-27T05:46:00.993Z,16.10
2018-03-27T05:48:28.546Z,16.70
2018-03-27T05:50:56.092Z,16.13
2018-03-27T05:53:23.640Z,18.10
2018-03-27T05:55:51.147Z,18.47
2018-03-27T05:58:18.692Z,19.77
2018-03-27T06:00:46.203Z,17.93
2018-03-27T06:03:13.717Z,19.17
2018-03-27T06:05:41.229Z,18.40
2018-03-27T06:08:08.697Z,17.80
2018-03-27T06:10:36.153Z,17.47
2018-03-27T06:13:03.646Z,19.17
2018-03-27T06:15:31.141Z,17.13
2018-03-27T06:17:58.594Z,19.00
2018-03-27T06:20:26.065Z,19.27
2018-03-27T06:22:53.527Z,17.03
2018-03-27T06:25:21.050Z,16.90
2018-03-27T06:27:48.582Z,17.60
2018-03-27T06:30:16.142Z,17.43
2018-03-27T06:32:43.690Z,16.23
2018-03-27T06:35:11.146Z,17.07
2018-03-27T06:37:38.596Z,18.20
2018-03-27T06:40:06.131Z,18.30
2018-03-27T06:42:33.614Z,16.30
2018-03-27T06:45:01.092Z,17.10
2018-03-27T06:47:28.545Z,16.97
2018-03-27T06:49:56.040Z,15.97
2018-03-27T06:52:23.491Z,16.57
2018-03-27T06:54:50.953Z,16.57
2018-03-27T06:57:18.430Z,16.80
2018-03-27T06:59:45.884Z,19.93
2018-03-27T07:02:13.362Z,18.50
2018-03-27T07:04:40.891Z,18.23
2018-03-27T07:07:08.372Z,16.87
2018-03-27T07:09:35.868Z,15.10
2018-03-27T07:12:03.357Z,14.70
2018-03-27T07:14:30.814Z,13.57
2018-03-27T07:16:58.301Z,16.53
2018-03-27T07:19:25.847Z,15.90
2018-03-27T07:21:53.330Z,14.80
2018-03-27T07:24:20.862Z,14.43
2018-03-27T07:26:48.355Z,20.90
2018-03-27T07:29:15.815Z,17.67
2018-03-27T07:31:43.271Z,18.83
2018-03-27T07:34:10.793Z,16.97
2018-03-27T07:36:38.257Z,15.47
2018-03-27T07:39:05.746Z,13.37
2018-03-27T07:41:33.269Z,11.80
2018-03-27T07:44:00.739Z,15.10
2018-03-27T07:46:28.231Z,11.67
2018-03-27T07:48:55.729Z,13.20
2018-03-27T07:51:23.194Z,13.17
2018-03-27T07:53:50.651Z,12.40
2018-03-27T07:56:18.139Z,12.83
2018-03-27T07:58:45.671Z,13.27
2018-03-27T08:01:13.138Z,14.03
2018-03-27T08:03:40.638Z,12.97
2018-03-27T08:06:08.102Z,13.13
2018-03-27T08:08:35.566Z,13.60
2018-03-27T08:11:03.066Z,15.10
2018-03-27T08:13:30.522Z,12.50
2018-03-27T08:15:58.124Z,16.43
2018-03-27T08:18:25.656Z,14.70
2018-03-27T08:20:53.197Z,15.10
2018-03-27T08:23:20.686Z,15.23
2018-03-27T08:25:48.155Z,15.03
2018-03-27T08:28:15.611Z,18.00
2018-03-27T08:30:43.088Z,16.17
2018-03-27T08:33:10.555Z,16.20
2018-03-27T08:35:38.024Z,16.60
2018-03-27T08:38:05.550Z,16.30
2018-03-27T08:40:33.077Z,13.67
2018-03-27T08:43:00.673Z,12.07
2018-03-27T08:45:28.147Z,13.70
2018-03-27T08:47:55.652Z,14.17
2018-03-27T08:50:23.150Z,14.37
2018-03-27T08:52:50.698Z,14.93
2018-03-27T08:55:18.185Z,13.27
2018-03-27T08:57:45.663Z,12.87
2018-03-27T09:00:13.118Z,14.47
2018-03-27T09:02:40.694Z,12.50
2018-03-27T09:05:08.181Z,13.87
2018-03-27T09:07:35.698Z,14.60
2018-03-27T09:10:03.186Z,13.20
2018-03-27T09:12:30.666Z,13.83
2018-03-27T09:14:58.123Z,11.47
2018-03-27T09:17:25.587Z,12.03
2018-03-27T09:19:53.110Z,13.03
2018-03-27T09:22:20.587Z,11.63
2018-03-27T09:24:48.047Z,11.57
2018-03-27T09:27:15.521Z,12.50
2018-03-27T09:29:42.989Z,12.63
2018-03-27T09:32:10.449Z,11.87
2018-03-27T09:34:37.929Z,10.23
2018-03-27T09:37:05.386Z,11.47
2018-03-27T09:39:32.845Z,10.77
2018-03-27T09:42:00.330Z,10.20
2018-03-27T09:44:27.863Z,9.93
2018-03-27T09:46:55.321Z,8.47
2018-03-27T09:49:22.804Z,9.60
2018-03-27T09:51:50.290Z,11.60
2018-03-27T09:54:17.845Z,12.03
2018-03-27T09:56:45.355Z,9.53
2018-03-27T09:59:12.833Z,9.50
2018-03-27T10:01:40.290Z,11.10
2018-03-27T10:04:07.780Z,8.33
2018-03-27T10:06:35.284Z,10.20
2018-03-27T10:09:02.745Z,9.43
2018-03-27T10:11:30.242Z,11.10
2018-03-27T10:13:57.714Z,11.57
2018-03-27T10:16:25.165Z,9.33
2018-03-27T10:18:52.677Z,9.40
2018-03-27T10:21:20.140Z,10.20
2018-03-27T10:23:47.636Z,10.13
2018-03-27T10:26:15.156Z,17.20
2018-03-27T10:28:42.715Z,8.20
2018-03-27T10:31:10.212Z,8.50
2018-03-27T10:33:37.773Z,8.07
2018-03-27T10:36:05.277Z,7.47
2018-03-27T10:38:32.860Z,6.97
2018-03-27T10:41:00.354Z,7.63
2018-03-27T10:43:27.809Z,7.17
2018-03-27T10:45:55.340Z,6.83
2018-03-27T10:48:22.810Z,11.07
2018-03-27T10:50:50.258Z,8.97
2018-03-27T10:53:17.747Z,8.23
2018-03-27T10:55:45.291Z,9.70
2018-03-27T10:58:12.749Z,8.30
2018-03-27T11:00:40.226Z,7.13
2018-03-27T11:03:07.682Z,7.20
2018-03-27T11:05:35.163Z,6.43
2018-03-27T11:08:02.650Z,7.60
2018-03-27T11:10:30.136Z,8.07
2018-03-27T11:12:57.603Z,8.43
2018-03-27T11:15:25.102Z,9.30
2018-03-27T11:17:52.579Z,8.30
2018-03-27T11:20:20.049Z,9.10
2018-03-27T11:22:47.517Z,9.77
2018-03-27T11:25:15.081Z,8.13
2018-03-27T11:27:42.551Z,8.90
2018-03-27T11:30:10.006Z,8.47
2018-03-27T11:32:37.502Z,8.43
2018-03-27T11:35:04.958Z,9.50
2018-03-27T11:37:32.418Z,9.03
2018-03-27T11:39:59.898Z,9.20
2018-03-27T11:42:27.350Z,11.67
2018-03-27T11:44:54.802Z,9.40
2018-03-27T11:47:22.278Z,6.83
2018-03-27T11:49:49.830Z,8.10
2018-03-27T11:52:17.312Z,9.70
2018-03-27T11:54:44.788Z,7.57
2018-03-27T11:57:12.246Z,7.77
2018-03-27T11:59:39.704Z,8.57
2018-03-27T12:02:07.203Z,7.67
2018-03-27T12:04:34.658Z,8.17
2018-03-27T12:07:02.258Z,9.50
2018-03-27T12:09:29.738Z,8.00
2018-03-27T12:11:57.198Z,8.73
2018-03-27T12:14:24.737Z,9.07
2018-03-27T12:16:52.194Z,7.17
2018-03-27T12:19:19.654Z,19.23
2018-03-27T12:21:47.146Z,5.97
2018-03-27T12:24:14.611Z,8.53
2018-03-27T12:26:42.072Z,7.33
2018-03-27T12:29:09.630Z,9.30
2018-03-27T12:31:37.095Z,8.30
2018-03-27T12:34:04.651Z,6.90
2018-03-27T12:36:32.314Z,7.20
2018-03-27T12:38:59.946Z,6.40
2018-03-27T12:41:27.444Z,6.60
2018-03-27T12:43:54.943Z,6.60
2018-03-27T12:46:22.401Z,7.40
2018-03-27T12:48:49.861Z,7.60
2018-03-27T12:51:17.382Z,7.73
2018-03-27T12:53:44.853Z,8.00
2018-03-27T12:56:12.320Z,9.00
2018-03-27T12:58:39.941Z,8.27
2018-03-27T13:01:07.416Z,8.27
2018-03-27T13:03:34.867Z,8.10
2018-03-27T13:06:02.370Z,8.73
2018-03-27T13:08:29.840Z,8.53
2018-03-27T13:10:57.306Z,8.30
2018-03-27T13:13:24.893Z,8.40
2018-03-27T13:15:52.350Z,7.87
2018-03-27T13:18:19.925Z,10.67
2018-03-27T13:20:47.390Z,13.60
2018-03-27T13:23:14.851Z,10.27
2018-03-27T13:25:42.382Z,8.83
2018-03-27T13:28:09.834Z,8.57
2018-03-27T13:30:37.277Z,7.67
2018-03-27T13:33:04.734Z,7.63
2018-03-27T13:35:32.318Z,8.93
2018-03-27T13:37:59.804Z,8.37
2018-03-27T13:40:27.318Z,7.57
2018-03-27T13:42:54.797Z,8.13
2018-03-27T13:45:22.339Z,7.20
2018-03-27T13:47:49.813Z,7.87
2018-03-27T13:50:17.314Z,7.80
2018-03-27T13:52:44.870Z,7.63
2018-03-27T13:55:12.323Z,9.20
2018-03-27T13:57:39.845Z,7.90
2018-03-27T14:00:07.395Z,8.40
2018-03-27T14:02:34.847Z,9.00
2018-03-27T14:05:02.421Z,7.40
2018-03-27T14:07:29.882Z,7.27
2018-03-27T14:09:57.377Z,7.53
2018-03-27T14:12:24.838Z,8.33
2018-03-27T14:14:52.298Z,7.70
2018-03-27T14:17:19.785Z,7.77
2018-03-27T14:19:47.268Z,6.67
2018-03-27T14:22:15.584Z,8.20
2018-03-27T14:24:43.082Z,7.87
2018-03-27T14:27:10.546Z,8.17
2018-03-27T14:29:38.015Z,9.50
2018-03-27T14:32:05.498Z,9.63
2018-03-27T14:34:32.958Z,9.67
2018-03-27T14:37:00.412Z,9.30
2018-03-27T14:39:27.899Z,8.60
2018-03-27T14:41:55.349Z,9.27
2018-03-27T14:44:22.837Z,9.10
2018-03-27T14:46:50.365Z,8.33
2018-03-27T14:49:17.786Z,9.17
2018-03-27T14:51:45.277Z,8.20
2018-03-27T14:54:12.838Z,9.90
2018-03-27T14:56:40.306Z,8.63
2018-03-27T14:59:07.758Z,7.63
2018-03-27T15:01:35.243Z,7.93
2018-03-27T15:04:02.764Z,8.90
2018-03-27T15:06:30.228Z,7.57
2018-03-27T15:08:57.712Z,8.77
2018-03-27T15:11:25.178Z,8.53
2018-03-27T15:13:52.633Z,8.17
2018-03-27T15:16:20.133Z,9.00
2018-03-27T15:18:47.738Z,7.67
2018-03-27T15:21:15.251Z,8.37
2018-03-27T15:23:42.840Z,8.20
2018-03-27T15:26:10.304Z,8.00
2018-03-27T15:28:37.751Z,6.80
2018-03-27T15:31:05.266Z,9.00
2018-03-27T15:33:32.873Z,8.50
2018-03-27T15:36:00.428Z,8.40
2018-03-27T15:38:27.890Z,7.53
2018-03-27T15:40:55.343Z,8.10
2018-03-27T15:43:22.824Z,7.20
2018-03-27T15:45:50.294Z,7.67
2018-03-27T15:48:17.746Z,7.73
2018-03-27T15:50:45.326Z,10.53
2018-03-27T15:53:12.777Z,8.20
2018-03-27T15:55:40.310Z,8.17
2018-03-27T15:58:07.785Z,7.87
2018-03-27T16:00:35.355Z,9.27
2018-03-27T16:03:02.863Z,10.53
2018-03-27T16:05:30.378Z,7.93
2018-03-27T16:07:57.940Z,8.60
2018-03-27T16:10:25.414Z,9.27
2018-03-27T16:12:52.878Z,7.80
2018-03-27T16:15:20.366Z,7.30
2018-03-27T16:17:47.899Z,9.03
2018-03-27T16:20:15.358Z,9.00
2018-03-27T16:22:42.825Z,8.33
2018-03-27T16:25:10.291Z,7.17
2018-03-27T16:27:37.783Z,7.33
2018-03-27T16:30:05.310Z,7.87
2018-03-27T16:32:32.766Z,7.63
2018-03-27T16:35:00.281Z,7.70
2018-03-27T16:37:27.776Z,8.27
2018-03-27T16:39:55.226Z,7.00
2018-03-27T16:42:22.706Z,7.60
2018-03-27T16:44:50.158Z,7.27
2018-03-27T16:47:17.606Z,7.33
2018-03-27T16:49:45.096Z,7.63
2018-03-27T16:52:12.569Z,6.97
2018-03-27T16:54:40.027Z,8.23
2018-03-27T16:57:07.591Z,7.17
2018-03-27T16:59:35.057Z,7.90
2018-03-27T17:02:02.518Z,8.10
2018-03-27T17:04:30.066Z,7.63
2018-03-27T17:06:57.515Z,8.37
2018-03-27T17:09:25.001Z,8.00
2018-03-27T17:11:52.539Z,7.93
2018-03-27T17:14:20.002Z,9.13
2018-03-27T17:16:47.458Z,8.47
2018-03-27T17:19:14.964Z,8.60
2018-03-27T17:21:42.466Z,12.30
2018-03-27T17:24:10.058Z,7.57
2018-03-27T17:26:37.526Z,13.13
2018-03-27T17:29:04.986Z,7.97
2018-03-27T17:31:32.523Z,8.13
2018-03-27T17:33:59.964Z,7.60
2018-03-27T17:36:27.674Z,7.70
2018-03-27T17:38:55.158Z,8.07
2018-03-27T17:41:22.644Z,7.50
2018-03-27T17:43:50.102Z,6.70
2018-03-27T17:46:17.595Z,6.67
2018-03-27T17:48:45.079Z,6.80
2018-03-27T17:51:12.580Z,7.53
2018-03-27T17:53:40.340Z,9.83
2018-03-27T17:56:07.799Z,11.20
2018-03-27T17:58:35.268Z,6.83
2018-03-27T18:01:02.773Z,6.60
2018-03-27T18:03:30.234Z,7.17
2018-03-27T18:05:57.684Z,6.00
2018-03-27T18:08:25.156Z,5.10
2018-03-27T18:10:52.608Z,10.23
2018-03-27T18:13:20.146Z,5.77
2018-03-27T18:15:47.607Z,5.93
2018-03-27T18:18:15.070Z,7.80
2018-03-27T18:20:42.543Z,9.60
2018-03-27T18:23:10.030Z,10.37
2018-03-27T18:25:37.483Z,8.17
2018-03-27T18:28:05.551Z,5.63
2018-03-27T18:30:33.022Z,7.00
2018-03-27T18:33:00.474Z,6.40
2018-03-27T18:35:28.033Z,7.00
2018-03-27T18:37:55.494Z,8.30
2018-03-27T18:40:23.049Z,15.97
2018-03-27T18:42:50.523Z,8.80
2018-03-27T18:45:18.006Z,11.23
2018-03-27T18:47:45.474Z,8.40
2018-03-27T18:50:12.942Z,7.83
2018-03-27T18:52:41.162Z,11.03
2018-03-27T18:55:08.632Z,14.23
2018-03-27T18:57:36.367Z,6.83
2018-03-27T19:00:03.964Z,6.70
2018-03-27T19:02:31.447Z,7.30
2018-03-27T19:04:58.955Z,5.93
2018-03-27T19:07:26.419Z,8.03
2018-03-27T19:09:53.875Z,5.87
2018-03-27T19:12:21.354Z,5.80
2018-03-27T19:14:48.846Z,6.13
2018-03-27T19:17:17.164Z,5.77
2018-03-27T19:19:44.643Z,6.13
2018-03-27T19:22:12.100Z,6.30
2018-03-27T19:24:39.566Z,7.80
2018-03-27T19:27:07.072Z,7.43
2018-03-27T19:29:34.546Z,10.53
2018-03-27T19:32:02.765Z,6.03
2018-03-27T19:34:30.257Z,7.37
2018-03-27T19:36:58.657Z,5.97
2018-03-27T19:39:26.118Z,7.93
2018-03-27T19:41:53.662Z,8.77
2018-03-27T19:44:21.239Z,8.13
2018-03-27T19:46:49.694Z,9.20
2018-03-27T19:49:17.175Z,7.10
2018-03-27T19:51:44.644Z,7.80
2018-03-27T19:54:12.173Z,10.57
2018-03-27T19:56:39.659Z,9.63
2018-03-27T19:59:07.177Z,9.57
2018-03-27T20:01:34.671Z,8.60
2018-03-27T20:04:02.147Z,10.00
2018-03-27T20:06:29.619Z,8.23
2018-03-27T20:08:57.117Z,9.23
2018-03-27T20:11:24.584Z,14.70
2018-03-27T20:13:52.040Z,11.97
2018-03-27T20:16:19.541Z,8.80
2018-03-27T20:18:47.063Z,7.20
2018-03-27T20:21:14.564Z,7.23
2018-03-27T20:23:42.067Z,10.23
2018-03-27T20:26:09.542Z,8.97
2018-03-27T20:28:37.048Z,7.67
2018-03-27T20:31:04.607Z,9.30
2018-03-27T20:33:32.075Z,7.10
2018-03-27T20:35:59.592Z,6.43
2018-03-27T20:38:27.042Z,7.67
2018-03-27T20:40:54.522Z,7.03
2018-03-27T20:43:22.051Z,18.40
2018-03-27T20:45:49.502Z,9.20
2018-03-27T20:48:17.000Z,10.47
2018-03-27T20:50:44.490Z,8.50
2018-03-27T20:53:11.946Z,9.17
2018-03-27T20:55:39.431Z,6.97
2018-03-27T20:58:06.982Z,8.13
2018-03-27T21:00:34.597Z,7.80
2018-03-27T21:03:02.154Z,7.40
2018-03-27T21:05:29.654Z,9.20
2018-03-27T21:07:57.135Z,14.33
2018-03-27T21:10:24.585Z,6.67
2018-03-27T21:12:52.115Z,7.50
2018-03-27T21:15:19.609Z,11.60
2018-03-27T21:17:47.057Z,7.60
2018-03-27T21:20:14.611Z,11.17
2018-03-27T21:22:42.095Z,9.47
2018-03-27T21:25:09.603Z,8.17
2018-03-27T21:27:37.080Z,6.27
2018-03-27T21:30:04.590Z,8.40
2018-03-27T21:32:32.121Z,7.70
2018-03-27T21:34:59.597Z,6.73
2018-03-27T21:37:27.063Z,7.60
2018-03-27T21:39:54.560Z,7.30
2018-03-27T21:42:22.034Z,7.93
2018-03-27T21:44:49.496Z,8.80
2018-03-27T21:47:16.978Z,8.30
2018-03-27T21:49:44.471Z,7.60
2018-03-27T21:52:12.085Z,7.60
2018-03-27T21:54:39.627Z,6.43
2018-03-27T21:57:07.205Z,10.17
2018-03-27T21:59:34.677Z,14.13
2018-03-27T22:02:02.204Z,10.20
2018-03-27T22:04:29.769Z,7.53
2018-03-27T22:06:57.313Z,6.73
2018-03-27T22:09:24.828Z,8.03
2018-03-27T22:11:52.376Z,5.90
2018-03-27T22:14:19.835Z,8.20
2018-03-27T22:16:47.403Z,9.50
2018-03-27T22:19:14.959Z,9.00
2018-03-27T22:21:42.425Z,8.07
2018-03-27T22:24:09.887Z,7.10
2018-03-27T22:26:37.374Z,7.50
2018-03-27T22:29:04.893Z,8.20
2018-03-27T22:31:32.398Z,7.10
2018-03-27T22:33:59.924Z,9.93
2018-03-27T22:36:27.379Z,8.10
2018-03-27T22:38:54.922Z,9.60
2018-03-27T22:41:22.419Z,7.30
2018-03-27T22:43:49.874Z,7.63
2018-03-27T22:46:17.334Z,7.27
2018-03-27T22:48:44.826Z,10.00
2018-03-27T22:51:12.294Z,8.10
2018-03-27T22:53:39.815Z,8.20
2018-03-27T22:56:07.321Z,14.63
2018-03-27T22:58:34.790Z,8.87
2018-03-27T23:01:02.245Z,17.17
2018-03-27T23:03:29.758Z,13.50
2018-03-27T23:05:57.306Z,9.13
2018-03-27T23:08:24.870Z,10.37
2018-03-27T23:10:52.427Z,11.97
2018-03-27T23:13:19.986Z,10.37
2018-03-27T23:15:47.441Z,10.57
2018-03-27T23:18:15.003Z,14.47
2018-03-27T23:20:42.465Z,10.17
2018-03-27T23:23:09.943Z,10.17
2018-03-27T23:25:37.427Z,10.33
2018-03-27T23:28:04.887Z,9.87
2018-03-27T23:30:32.349Z,11.50
2018-03-27T23:32:59.835Z,10.87
2018-03-27T23:35:29.355Z,17.53
2018-03-27T23:37:56.886Z,11.33
2018-03-27T23:40:24.374Z,10.33
2018-03-27T23:42:51.838Z,9.80
2018-03-27T23:45:19.290Z,9.73
2018-03-27T23:47:46.785Z,12.87
2018-03-27T23:50:14.249Z,12.63
2018-03-27T23:52:41.721Z,11.67
2018-03-27T23:55:09.227Z,11.30
2018-03-27T23:57:36.685Z,14.47
